createdAt,value
2022-12-04T00:00:18.194Z,100705.78
2022-12-04T00:02:48.230Z,100700.47
2022-12-04T00:05:21.256Z,100706.38
2022-12-04T00:07:51.639Z,100705.63
2022-12-04T00:10:21.846Z,100703.41
2022-12-04T00:12:51.923Z,100712.63
2022-12-04T00:15:26.695Z,100709.75
2022-12-04T00:17:57.635Z,100702.19
2022-12-04T00:20:30.339Z,100703.47
2022-12-04T00:23:00.379Z,100713.25
2022-12-04T00:25:30.479Z,100705.75
2022-12-04T00:28:00.780Z,100706.59
2022-12-04T00:30:30.878Z,100701.50
2022-12-04T00:33:00.963Z,100708.44
2022-12-04T00:35:33.634Z,100705.13
2022-12-04T00:38:03.948Z,100705.91
2022-12-04T00:40:34.220Z,100709.16
2022-12-04T00:43:08.306Z,100704.84
2022-12-04T00:45:38.357Z,100714.78
2022-12-04T00:48:08.981Z,100719.16
2022-12-04T00:50:42.424Z,100713.09
2022-12-04T00:53:12.553Z,100713.31
2022-12-04T00:55:43.367Z,100716.78
2022-12-04T00:58:14.235Z,100702.44
2022-12-04T01:00:45.577Z,100718.69
2022-12-04T01:03:15.919Z,100712.34
2022-12-04T01:05:48.920Z,100704.38
2022-12-04T01:08:19.024Z,100709.34
2022-12-04T01:10:49.096Z,100710.25
2022-12-04T01:13:19.206Z,100702.47
2022-12-04T01:15:50.226Z,100704.31
2022-12-04T01:18:20.916Z,100708.38
2022-12-04T01:20:55.533Z,100705.38
2022-12-04T01:23:25.605Z,100706.88
2022-12-04T01:25:57.910Z,100713.38
2022-12-04T01:28:28.739Z,100715.72
2022-12-04T01:31:03.379Z,100703.94
2022-12-04T01:33:37.641Z,100708.75
2022-12-04T01:36:13.040Z,100710.72
2022-12-04T01:38:43.461Z,100701.50
2022-12-04T01:41:15.688Z,100707.97
2022-12-04T01:43:46.206Z,100721.38
2022-12-04T01:46:16.273Z,100712.09
2022-12-04T01:48:49.194Z,100712.28
2022-12-04T01:51:25.691Z,100699.47
2022-12-04T01:53:58.853Z,100704.91
2022-12-04T01:56:35.622Z,100713.06
2022-12-04T01:59:07.145Z,100707.22
2022-12-04T02:01:44.161Z,100707.34
2022-12-04T02:04:14.276Z,100703.09
2022-12-04T02:06:46.922Z,100703.16
2022-12-04T02:09:20.470Z,100704.22
2022-12-04T02:12:03.169Z,100710.47
2022-12-04T02:14:38.832Z,100702.84
2022-12-04T02:17:20.388Z,100714.13
2022-12-04T02:20:19.350Z,100704.47
2022-12-04T02:23:19.816Z,100679.91
2022-12-04T02:25:58.231Z,100698.41
2022-12-04T02:28:37.500Z,100700.09
2022-12-04T02:31:12.233Z,100702.53
2022-12-04T02:33:47.011Z,100706.78
2022-12-04T02:36:22.404Z,100706.00
2022-12-04T02:38:58.131Z,100703.88
2022-12-04T02:41:33.785Z,100698.78
2022-12-04T02:44:12.248Z,100701.41
2022-12-04T02:46:45.783Z,100705.78
2022-12-04T02:49:18.909Z,100703.16
2022-12-04T02:51:51.581Z,100700.56
2022-12-04T02:54:27.955Z,100697.03
2022-12-04T02:56:59.666Z,100710.03
2022-12-04T02:59:36.362Z,100702.19
2022-12-04T03:02:13.532Z,100705.66
2022-12-04T03:04:45.424Z,100701.34
2022-12-04T03:07:20.701Z,100693.50
2022-12-04T03:09:55.101Z,100689.19
2022-12-04T03:12:32.045Z,100689.13
2022-12-04T03:15:08.640Z,100697.81
2022-12-04T03:17:45.844Z,100692.66
2022-12-04T03:20:18.419Z,100670.34
2022-12-04T03:22:54.830Z,100689.19
2022-12-04T03:25:31.893Z,100683.91
2022-12-04T03:28:07.541Z,100679.66
2022-12-04T03:30:46.609Z,100677.06
2022-12-04T03:33:20.249Z,100673.03
2022-12-04T03:35:55.703Z,100668.78
2022-12-04T03:38:35.821Z,100678.38
2022-12-04T03:41:08.949Z,100676.56
2022-12-04T03:43:42.698Z,100678.19
2022-12-04T03:46:20.858Z,100681.66
2022-12-04T03:48:56.302Z,100685.03
2022-12-04T03:51:33.112Z,100682.50
2022-12-04T03:54:11.792Z,100677.28
2022-12-04T03:56:46.468Z,100680.81
2022-12-04T03:59:22.030Z,100683.34
2022-12-04T04:01:58.079Z,100690.31
2022-12-04T04:04:33.309Z,100680.06
2022-12-04T04:07:12.171Z,100677.63
2022-12-04T04:09:46.087Z,100679.16
2022-12-04T04:12:21.080Z,100675.81
2022-12-04T04:15:15.575Z,100674.13
2022-12-04T04:18:02.846Z,100676.66
2022-12-04T04:20:52.320Z,100679.28
2022-12-04T04:23:37.173Z,100671.56
2022-12-04T04:26:07.425Z,100675.88
2022-12-04T04:28:39.752Z,100678.44
2022-12-04T04:31:15.688Z,100676.84
2022-12-04T04:33:55.020Z,100681.28
2022-12-04T04:36:34.412Z,100677.03
2022-12-04T04:39:13.196Z,100673.78
2022-12-04T04:41:48.824Z,100677.22
2022-12-04T04:44:24.187Z,100686.03
2022-12-04T04:47:00.344Z,100690.59
2022-12-04T04:49:37.764Z,100688.34
2022-12-04T04:52:07.963Z,100689.63
2022-12-04T04:54:40.081Z,100681.31
2022-12-04T04:57:10.193Z,100693.38
2022-12-04T04:59:40.212Z,100696.94
2022-12-04T05:02:10.439Z,100696.22
2022-12-04T05:04:43.056Z,100701.47
2022-12-04T05:07:13.178Z,100705.91
2022-12-04T05:09:43.330Z,100704.31
2022-12-04T05:12:13.514Z,100701.84
2022-12-04T05:14:43.648Z,100700.22
2022-12-04T05:17:13.697Z,100706.28
2022-12-04T05:19:59.236Z,100704.63
2022-12-04T05:22:31.746Z,100692.84
2022-12-04T05:25:02.380Z,100711.81
2022-12-04T05:27:36.412Z,100717.16
2022-12-04T05:30:06.791Z,100717.94
2022-12-04T05:32:36.761Z,100719.88
2022-12-04T05:35:11.614Z,100725.19
2022-12-04T05:37:42.814Z,100723.53
2022-12-04T05:40:13.915Z,100722.81
2022-12-04T05:42:43.999Z,100722.19
2022-12-04T05:45:14.476Z,100727.47
2022-12-04T05:47:45.844Z,100719.81
2022-12-04T05:50:18.523Z,100725.91
2022-12-04T05:52:48.548Z,100723.47
2022-12-04T05:55:18.845Z,100720.25
2022-12-04T05:57:48.882Z,100717.72
2022-12-04T06:00:19.988Z,100716.84
2022-12-04T06:02:50.061Z,100713.41
2022-12-04T06:05:22.881Z,100705.63
2022-12-04T06:07:52.997Z,100710.84
2022-12-04T06:10:23.162Z,100711.00
2022-12-04T06:12:57.332Z,100710.09
2022-12-04T06:15:27.575Z,100716.22
2022-12-04T06:17:57.724Z,100719.72
2022-12-04T06:20:30.598Z,100724.03
2022-12-04T06:23:00.711Z,100722.44
2022-12-04T06:25:30.738Z,100727.59
2022-12-04T06:28:00.891Z,100724.78
2022-12-04T06:30:31.010Z,100723.72
2022-12-04T06:33:01.116Z,100726.25
2022-12-04T06:35:33.778Z,100734.47
2022-12-04T06:38:04.057Z,100736.97
2022-12-04T06:40:34.078Z,100732.28
2022-12-04T06:43:04.125Z,100734.72
2022-12-04T06:45:34.296Z,100730.34
2022-12-04T06:48:04.547Z,100741.25
2022-12-04T06:50:37.310Z,100734.53
2022-12-04T06:53:08.591Z,100739.50
2022-12-04T06:55:38.789Z,100743.50
2022-12-04T06:58:08.838Z,100736.38
2022-12-04T07:00:39.103Z,100733.31
2022-12-04T07:03:09.255Z,100729.06
2022-12-04T07:05:42.353Z,100739.00
2022-12-04T07:08:14.907Z,100735.94
2022-12-04T07:10:45.807Z,100731.66
2022-12-04T07:13:15.818Z,100736.75
2022-12-04T07:15:45.929Z,100725.03
2022-12-04T07:18:15.941Z,100736.56
2022-12-04T07:20:48.672Z,100735.63
2022-12-04T07:23:18.976Z,100731.97
2022-12-04T07:25:49.198Z,100732.28
2022-12-04T07:28:21.582Z,100724.06
2022-12-04T07:30:51.800Z,100732.53
2022-12-04T07:33:22.184Z,100730.84
2022-12-04T07:36:01.510Z,100732.25
2022-12-04T07:38:35.940Z,100727.72
2022-12-04T07:41:08.525Z,100734.59
2022-12-04T07:43:38.513Z,100724.69
2022-12-04T07:46:10.635Z,100725.50
2022-12-04T07:48:40.929Z,100724.00
2022-12-04T07:51:15.027Z,100723.63
2022-12-04T07:53:45.305Z,100724.69
2022-12-04T07:56:16.080Z,100732.66
2022-12-04T07:58:46.921Z,100730.03
2022-12-04T08:01:19.665Z,100731.03
2022-12-04T08:03:51.262Z,100726.09
2022-12-04T08:06:26.253Z,100733.03
2022-12-04T08:08:57.458Z,100728.88
2022-12-04T08:11:29.836Z,100729.88
2022-12-04T08:14:00.980Z,100740.31
2022-12-04T08:16:32.622Z,100739.91
2022-12-04T08:19:03.650Z,100729.66
2022-12-04T08:21:36.577Z,100726.22
2022-12-04T08:24:06.854Z,100732.69
2022-12-04T08:26:36.961Z,100732.06
2022-12-04T08:29:07.514Z,100720.59
2022-12-04T08:31:39.175Z,100724.00
2022-12-04T08:34:10.783Z,100726.38
2022-12-04T08:36:43.722Z,100724.09
2022-12-04T08:39:15.070Z,100729.66
2022-12-04T08:41:45.095Z,100715.34
2022-12-04T08:44:18.272Z,100717.22
2022-12-04T08:46:48.446Z,100717.97
2022-12-04T08:49:18.655Z,100707.81
2022-12-04T08:51:51.252Z,100727.75
2022-12-04T08:54:24.437Z,100731.22
2022-12-04T08:56:59.166Z,100726.44
2022-12-04T08:59:29.297Z,100716.19
2022-12-04T09:01:59.494Z,100717.69
2022-12-04T09:04:29.858Z,100715.91
2022-12-04T09:07:02.518Z,100707.81
2022-12-04T09:09:33.036Z,100706.78
2022-12-04T09:12:03.139Z,100706.13
2022-12-04T09:14:33.210Z,100703.88
2022-12-04T09:17:03.311Z,100693.81
2022-12-04T09:19:35.459Z,100692.59
2022-12-04T09:22:08.152Z,100686.75
2022-12-04T09:24:38.225Z,100693.34
2022-12-04T09:27:14.289Z,100693.56
2022-12-04T09:29:45.147Z,100697.13
2022-12-04T09:32:15.821Z,100691.75
2022-12-04T09:34:49.630Z,100682.66
2022-12-04T09:37:25.242Z,100672.69
2022-12-04T09:39:55.589Z,100669.75
2022-12-04T09:42:36.345Z,100671.81
2022-12-04T09:45:13.740Z,100677.75
2022-12-04T09:47:48.389Z,100675.63
2022-12-04T09:50:24.778Z,100670.69
2022-12-04T09:53:02.063Z,100660.63
2022-12-04T09:55:36.930Z,100639.84
2022-12-04T09:58:09.549Z,100642.16
2022-12-04T10:00:44.950Z,100646.00
2022-12-04T10:03:19.587Z,100634.22
2022-12-04T10:06:00.650Z,100635.66
2022-12-04T10:08:37.760Z,100634.22
2022-12-04T10:11:13.262Z,100633.09
2022-12-04T10:14:08.282Z,100636.22
2022-12-04T10:16:48.537Z,100637.03
2022-12-04T10:19:27.411Z,100634.59
2022-12-04T10:22:12.805Z,100627.41
2022-12-04T10:24:50.993Z,100612.97
2022-12-04T10:27:25.088Z,100610.88
2022-12-04T10:29:59.848Z,100616.97
2022-12-04T10:32:33.926Z,100616.03
2022-12-04T10:35:13.148Z,100617.38
2022-12-04T10:37:46.269Z,100608.41
2022-12-04T10:40:24.324Z,100604.50
2022-12-04T10:43:00.043Z,100601.63
2022-12-04T10:45:30.059Z,100598.00
2022-12-04T10:48:01.083Z,100599.56
2022-12-04T10:50:31.251Z,100592.28
2022-12-04T10:53:01.477Z,100598.81
2022-12-04T10:55:38.435Z,100593.88
2022-12-04T10:58:18.605Z,100595.13
2022-12-04T11:01:06.798Z,100591.91
2022-12-04T11:03:38.154Z,100579.50
2022-12-04T11:06:12.196Z,100578.56
2022-12-04T11:08:44.869Z,100568.72
2022-12-04T11:11:19.357Z,100566.91
2022-12-04T11:13:49.472Z,100581.69
2022-12-04T11:16:36.691Z,100572.44
2022-12-04T11:19:21.670Z,100560.06
2022-12-04T11:21:52.491Z,100560.03
2022-12-04T11:24:28.654Z,100550.41
2022-12-04T11:27:01.618Z,100544.88
2022-12-04T11:29:36.201Z,100536.22
2022-12-04T11:32:09.555Z,100529.69
2022-12-04T11:34:43.195Z,100530.44
2022-12-04T11:37:23.229Z,100539.94
2022-12-04T11:39:55.148Z,100537.19
2022-12-04T11:42:30.771Z,100540.56
2022-12-04T11:45:02.192Z,100544.50
2022-12-04T11:47:35.741Z,100538.91
2022-12-04T11:50:16.563Z,100539.47
2022-12-04T11:52:59.300Z,100539.94
2022-12-04T11:55:35.385Z,100533.69
2022-12-04T11:58:30.512Z,100532.63
2022-12-04T12:01:14.152Z,100527.56
2022-12-04T12:03:56.446Z,100520.38
2022-12-04T12:06:37.935Z,100517.88
2022-12-04T12:09:25.792Z,100509.22
2022-12-04T12:12:05.112Z,100506.56
2022-12-04T12:14:47.338Z,100502.97
2022-12-04T12:17:24.556Z,100497.06
2022-12-04T12:20:07.179Z,100467.03
2022-12-04T12:22:50.558Z,100484.34
2022-12-04T12:25:24.388Z,100491.00
2022-12-04T12:28:08.024Z,100485.16
2022-12-04T12:31:04.069Z,100483.13
2022-12-04T12:33:39.721Z,100487.69
2022-12-04T12:36:11.911Z,100478.91
2022-12-04T12:38:48.579Z,100476.63
2022-12-04T12:41:22.296Z,100478.91
2022-12-04T12:44:00.216Z,100481.06
2022-12-04T12:46:38.522Z,100473.69
2022-12-04T12:49:15.501Z,100469.97
2022-12-04T12:51:50.012Z,100476.56
2022-12-04T12:54:31.403Z,100466.69
2022-12-04T12:57:08.912Z,100468.34
2022-12-04T12:59:49.315Z,100469.16
2022-12-04T13:02:28.521Z,100466.56
2022-12-04T13:05:02.108Z,100472.81
2022-12-04T13:07:40.634Z,100472.28
2022-12-04T13:10:22.081Z,100476.03
2022-12-04T13:12:57.653Z,100481.78
2022-12-04T13:15:36.565Z,100489.25
2022-12-04T13:18:12.249Z,100486.78
2022-12-04T13:20:49.434Z,100486.72
2022-12-04T13:23:31.941Z,100487.19
2022-12-04T13:26:08.948Z,100486.78
2022-12-04T13:28:50.462Z,100492.72
2022-12-04T13:31:32.083Z,100484.63
2022-12-04T13:34:18.759Z,100490.34
2022-12-04T13:37:11.140Z,100501.94
2022-12-04T13:40:11.140Z,100503.53
2022-12-04T13:42:44.742Z,100505.25
2022-12-04T13:45:27.631Z,100508.84
2022-12-04T13:48:02.048Z,100490.72
2022-12-04T13:50:36.597Z,100504.31
2022-12-04T13:53:07.824Z,100509.69
2022-12-04T13:55:40.230Z,100517.16
2022-12-04T13:58:28.784Z,100514.41
2022-12-04T14:01:13.301Z,100520.19
2022-12-04T14:03:51.153Z,100512.75
2022-12-04T14:06:31.589Z,100514.31
2022-12-04T14:09:03.948Z,100517.34
2022-12-04T14:11:44.017Z,100527.34
2022-12-04T14:14:27.346Z,100485.81
2022-12-04T14:16:58.516Z,100520.94
2022-12-04T14:19:36.107Z,100528.34
2022-12-04T14:22:08.940Z,100528.84
2022-12-04T14:24:41.015Z,100518.34
2022-12-04T14:27:36.689Z,100521.88
2022-12-04T14:30:07.947Z,100527.84
2022-12-04T14:32:38.654Z,100519.88
2022-12-04T14:35:19.011Z,100527.44
2022-12-04T14:37:56.410Z,100532.13
2022-12-04T14:40:28.636Z,100537.41
2022-12-04T14:42:58.967Z,100540.97
2022-12-04T14:45:40.470Z,100551.69
2022-12-04T14:48:28.967Z,100547.91
2022-12-04T14:51:07.960Z,100541.31
2022-12-04T14:53:47.471Z,100543.78
2022-12-04T14:56:27.184Z,100542.19
2022-12-04T14:58:58.414Z,100540.03
2022-12-04T15:01:36.284Z,100544.47
2022-12-04T15:04:29.097Z,100546.91
2022-12-04T15:07:01.193Z,100552.00
2022-12-04T15:09:46.378Z,100555.91
2022-12-04T15:12:37.758Z,100552.50
2022-12-04T15:15:17.576Z,100548.41
2022-12-04T15:17:58.997Z,100546.56
2022-12-04T15:20:33.392Z,100548.53
2022-12-04T15:23:07.666Z,100548.38
2022-12-04T15:25:48.540Z,100549.66
2022-12-04T15:28:23.276Z,100543.81
2022-12-04T15:30:55.370Z,100540.69
2022-12-04T15:33:30.052Z,100547.13
2022-12-04T15:36:03.381Z,100545.59
2022-12-04T15:38:34.035Z,100549.56
2022-12-04T15:41:06.731Z,100539.31
2022-12-04T15:43:43.796Z,100546.88
2022-12-04T15:46:17.801Z,100545.19
2022-12-04T15:48:48.203Z,100544.41
2022-12-04T15:51:22.112Z,100543.91
2022-12-04T15:53:52.220Z,100553.22
2022-12-04T15:56:25.665Z,100548.75
2022-12-04T15:58:59.087Z,100528.78
2022-12-04T16:01:30.318Z,100541.09
2022-12-04T16:04:01.680Z,100540.19
2022-12-04T16:06:33.855Z,100544.91
2022-12-04T16:09:21.934Z,100543.75
2022-12-04T16:12:04.087Z,100540.19
2022-12-04T16:14:34.161Z,100549.66
2022-12-04T16:17:06.562Z,100535.63
2022-12-04T16:19:42.310Z,100545.66
2022-12-04T16:22:19.422Z,100545.34
2022-12-04T16:24:51.108Z,100550.75
2022-12-04T16:27:26.236Z,100545.09
2022-12-04T16:29:56.481Z,100545.16
2022-12-04T16:32:32.851Z,100548.03
2022-12-04T16:35:05.421Z,100548.03
2022-12-04T16:37:35.580Z,100548.13
2022-12-04T16:40:06.707Z,100535.25
2022-12-04T16:42:39.748Z,100540.09
2022-12-04T16:45:24.320Z,100551.34
2022-12-04T16:47:54.445Z,100557.44
2022-12-04T16:50:24.602Z,100559.38
2022-12-04T16:52:54.757Z,100552.44
2022-12-04T16:55:32.284Z,100560.13
2022-12-04T16:58:05.034Z,100553.72
2022-12-04T17:00:36.543Z,100549.16
2022-12-04T17:03:07.680Z,100540.59
2022-12-04T17:05:37.934Z,100559.22
2022-12-04T17:08:08.508Z,100553.50
2022-12-04T17:10:38.682Z,100562.06
2022-12-04T17:13:14.064Z,100552.31
2022-12-04T17:15:44.185Z,100552.16
2022-12-04T17:18:20.552Z,100554.69
2022-12-04T17:20:51.722Z,100557.47
2022-12-04T17:23:21.783Z,100566.50
2022-12-04T17:25:51.987Z,100555.28
2022-12-04T17:28:25.145Z,100562.94
2022-12-04T17:30:55.190Z,100554.06
2022-12-04T17:33:25.271Z,100561.00
2022-12-04T17:35:56.172Z,100559.59
2022-12-04T17:38:26.362Z,100541.56
2022-12-04T17:41:03.833Z,100561.16
2022-12-04T17:43:36.779Z,100541.56
2022-12-04T17:46:13.018Z,100553.03
2022-12-04T17:48:43.617Z,100553.72
2022-12-04T17:51:16.092Z,100543.47
2022-12-04T17:53:46.352Z,100546.50
2022-12-04T17:56:18.967Z,100544.63
2022-12-04T17:58:52.467Z,100542.78
2022-12-04T18:01:24.490Z,100544.47
2022-12-04T18:03:55.533Z,100530.00
2022-12-04T18:06:27.425Z,100541.75
2022-12-04T18:08:58.206Z,100545.41
2022-12-04T18:11:30.906Z,100545.31
2022-12-04T18:14:11.432Z,100551.16
2022-12-04T18:16:51.232Z,100541.25
2022-12-04T18:19:22.190Z,100564.16
2022-12-04T18:21:54.207Z,100562.19
2022-12-04T18:24:25.167Z,100561.19
2022-12-04T18:26:55.583Z,100568.69
2022-12-04T18:29:30.214Z,100573.69
2022-12-04T18:32:00.736Z,100576.41
2022-12-04T18:34:30.872Z,100585.13
2022-12-04T18:37:01.063Z,100573.94
2022-12-04T18:39:31.185Z,100586.47
2022-12-04T18:42:01.357Z,100589.53
2022-12-04T18:44:34.079Z,100586.09
2022-12-04T18:47:04.166Z,100603.44
2022-12-04T18:49:34.451Z,100596.84
2022-12-04T18:52:04.591Z,100599.03
2022-12-04T18:54:34.733Z,100607.28
2022-12-04T18:57:04.850Z,100611.06
2022-12-04T18:59:38.718Z,100605.16
2022-12-04T19:02:08.897Z,100607.69
2022-12-04T19:04:40.867Z,100607.00
2022-12-04T19:07:10.938Z,100609.56
2022-12-04T19:10:09.861Z,100605.31
2022-12-04T19:12:31.628Z,100610.41
2022-12-04T19:15:05.380Z,100609.63
2022-12-04T19:17:38.412Z,100606.16
2022-12-04T19:20:10.956Z,100608.50
2022-12-04T19:22:41.340Z,100603.72
2022-12-04T19:25:12.187Z,100603.69
2022-12-04T19:27:42.343Z,100604.81
2022-12-04T19:30:16.148Z,100606.63
2022-12-04T19:32:46.282Z,100608.31
2022-12-04T19:35:16.401Z,100608.84
2022-12-04T19:37:52.373Z,100597.06
2022-12-04T19:40:23.664Z,100604.00
2022-12-04T19:42:58.126Z,100599.69
2022-12-04T19:45:33.926Z,100600.44
2022-12-04T19:48:08.623Z,100605.72
2022-12-04T19:50:39.111Z,100607.78
2022-12-04T19:53:09.319Z,100603.28
2022-12-04T19:55:39.513Z,100605.81
2022-12-04T19:58:09.804Z,100606.84
2022-12-04T20:00:43.219Z,100606.91
2022-12-04T20:03:13.299Z,100608.13
2022-12-04T20:05:43.375Z,100604.47
2022-12-04T20:08:15.708Z,100608.44
2022-12-04T20:10:46.459Z,100606.63
2022-12-04T20:13:18.690Z,100619.03
2022-12-04T20:15:51.428Z,100610.81
2022-12-04T20:18:21.577Z,100616.81
2022-12-04T20:20:57.623Z,100615.69
2022-12-04T20:23:28.173Z,100624.78
2022-12-04T20:25:58.383Z,100611.47
2022-12-04T20:28:28.544Z,100614.19
2022-12-04T20:31:01.436Z,100624.69
2022-12-04T20:33:31.624Z,100624.53
2022-12-04T20:36:03.736Z,100623.00
2022-12-04T20:38:33.865Z,100624.97
2022-12-04T20:41:05.391Z,100632.50
2022-12-04T20:43:36.144Z,100631.56
2022-12-04T20:46:16.820Z,100627.94
2022-12-04T20:48:48.924Z,100629.38
2022-12-04T20:51:20.231Z,100644.38
2022-12-04T20:53:51.482Z,100633.44
2022-12-04T20:56:23.504Z,100638.00
2022-12-04T20:58:53.856Z,100632.66
2022-12-04T21:01:27.625Z,100632.75
2022-12-04T21:03:58.347Z,100626.75
2022-12-04T21:06:34.597Z,100637.16
2022-12-04T21:09:06.680Z,100629.38
2022-12-04T21:11:40.594Z,100634.63
2022-12-04T21:14:26.844Z,100631.16
2022-12-04T21:17:00.011Z,100626.75
2022-12-04T21:19:30.581Z,100619.97
2022-12-04T21:22:01.176Z,100628.34
2022-12-04T21:24:36.382Z,100613.13
2022-12-04T21:27:06.771Z,100626.66
2022-12-04T21:29:38.069Z,100627.50
2022-12-04T21:32:10.867Z,100630.31
2022-12-04T21:34:40.965Z,100630.97
2022-12-04T21:37:11.016Z,100635.38
2022-12-04T21:39:41.999Z,100638.59
2022-12-04T21:42:25.146Z,100637.34
2022-12-04T21:44:55.215Z,100640.09
2022-12-04T21:47:31.394Z,100643.56
2022-12-04T21:50:02.149Z,100637.94
2022-12-04T21:52:32.195Z,100659.63
2022-12-04T21:55:02.181Z,100661.56
2022-12-04T21:57:32.271Z,100653.97
2022-12-04T22:00:02.552Z,100659.13
2022-12-04T22:02:38.075Z,100656.31
2022-12-04T22:05:08.607Z,100662.50
2022-12-04T22:07:38.769Z,100661.44
2022-12-04T22:10:11.201Z,100655.16
2022-12-04T22:12:49.439Z,100653.88
2022-12-04T22:15:21.022Z,100652.00
2022-12-04T22:17:53.725Z,100665.22
2022-12-04T22:20:23.904Z,100664.56
2022-12-04T22:22:53.927Z,100664.63
2022-12-04T22:25:24.009Z,100659.72
2022-12-04T22:27:55.991Z,100660.50
2022-12-04T22:30:26.588Z,100656.19
2022-12-04T22:32:59.500Z,100653.47
2022-12-04T22:35:29.675Z,100656.94
2022-12-04T22:37:59.675Z,100646.69
2022-12-04T22:40:29.761Z,100647.53
2022-12-04T22:42:59.762Z,100651.00
2022-12-04T22:45:29.940Z,100648.47
2022-12-04T22:48:02.872Z,100645.47
2022-12-04T22:50:33.041Z,100638.81
2022-12-04T22:53:03.191Z,100636.66
2022-12-04T22:55:33.638Z,100634.94
2022-12-04T22:58:03.799Z,100641.53
2022-12-04T23:00:33.933Z,100643.22
2022-12-04T23:03:06.667Z,100634.78
2022-12-04T23:05:37.078Z,100640.97
2022-12-04T23:08:13.769Z,100634.69
2022-12-04T23:10:43.938Z,100638.06
2022-12-04T23:13:14.295Z,100627.38
2022-12-04T23:15:44.420Z,100626.50
2022-12-04T23:18:17.580Z,100628.22
2022-12-04T23:20:47.664Z,100627.38
2022-12-04T23:23:17.962Z,100631.59
2022-12-04T23:25:48.020Z,100628.22
2022-12-04T23:28:18.200Z,100633.09
2022-12-04T23:30:49.475Z,100635.72
2022-12-04T23:33:22.183Z,100597.44
2022-12-04T23:35:55.966Z,100640.97
2022-12-04T23:38:27.947Z,100640.78
2022-12-04T23:41:03.804Z,100636.38
2022-12-04T23:43:34.382Z,100641.06
2022-12-04T23:46:10.435Z,100640.22
2022-12-04T23:48:45.863Z,100641.72
2022-12-04T23:51:20.460Z,100642.75
2022-12-04T23:53:51.444Z,100639.63
2022-12-04T23:56:26.185Z,100653.44
2022-12-04T23:58:58.735Z,100656.31
